sensor_id;sensor_type;location;lat;lon;timestamp;P1;durP1;ratioP1;P2;durP2;ratioP2
25199;SDS011;33094;48.782;9.162;2023-07-20T00:38:31;4.57;;;2.30;;
25199;SDS011;33094;48.782;9.162;2023-07-20T00:40:57;5.00;;;2.50;;
25199;SDS011;33094;48.782;9.162;2023-07-20T00:43:23;2.92;;;2.17;;
25199;SDS011;33094;48.782;9.162;2023-07-20T00:45:48;3.30;;;2.08;;
25199;SDS011;33094;48.782;9.162;2023-07-20T00:48:14;3.53;;;2.00;;
25199;SDS011;33094;48.782;9.162;2023-07-20T00:50:40;4.47;;;2.43;;
25199;SDS011;33094;48.782;9.162;2023-07-20T00:53:06;3.53;;;2.20;;
25199;SDS011;33094;48.782;9.162;2023-07-20T00:55:32;4.53;;;2.70;;
25199;SDS011;33094;48.782;9.162;2023-07-20T00:57:59;4.47;;;2.07;;
25199;SDS011;33094;48.782;9.162;2023-07-20T01:00:25;4.05;;;2.72;;
25199;SDS011;33094;48.782;9.162;2023-07-20T01:02:50;3.60;;;2.33;;
25199;SDS011;33094;48.782;9.162;2023-07-20T01:05:16;5.85;;;2.40;;
25199;SDS011;33094;48.782;9.162;2023-07-20T01:07:46;6.97;;;2.50;;
25199;SDS011;33094;48.782;9.162;2023-07-20T01:10:25;6.38;;;2.30;;
25199;SDS011;33094;48.782;9.162;2023-07-20T01:12:58;2.47;;;2.20;;
25199;SDS011;33094;48.782;9.162;2023-07-20T01:15:25;3.72;;;2.25;;
25199;SDS011;33094;48.782;9.162;2023-07-20T01:17:51;2.55;;;2.35;;
25199;SDS011;33094;48.782;9.162;2023-07-20T01:20:18;5.70;;;2.60;;
25199;SDS011;33094;48.782;9.162;2023-07-20T01:25:12;3.40;;;2.58;;
25199;SDS011;33094;48.782;9.162;2023-07-20T01:31:07;3.53;;;2.10;;
25199;SDS011;33094;48.782;9.162;2023-07-20T01:33:36;2.92;;;2.40;;
25199;SDS011;33094;48.782;9.162;2023-07-20T01:38:28;5.53;;;2.58;;
25199;SDS011;33094;48.782;9.162;2023-07-20T01:40:54;5.53;;;2.63;;
25199;SDS011;33094;48.782;9.162;2023-07-20T01:43:21;6.90;;;2.75;;
25199;SDS011;33094;48.782;9.162;2023-07-20T01:45:47;4.57;;;2.73;;
25199;SDS011;33094;48.782;9.162;2023-07-20T01:48:12;7.53;;;2.63;;
25199;SDS011;33094;48.782;9.162;2023-07-20T01:50:38;6.03;;;2.30;;
25199;SDS011;33094;48.782;9.162;2023-07-20T01:53:03;6.72;;;2.58;;
25199;SDS011;33094;48.782;9.162;2023-07-20T01:55:29;3.67;;;2.60;;
25199;SDS011;33094;48.782;9.162;2023-07-20T01:57:55;6.83;;;2.87;;
25199;SDS011;33094;48.782;9.162;2023-07-20T02:00:21;3.95;;;2.83;;
25199;SDS011;33094;48.782;9.162;2023-07-20T02:02:49;4.80;;;2.97;;
25199;SDS011;33094;48.782;9.162;2023-07-20T02:05:15;4.28;;;2.70;;
25199;SDS011;33094;48.782;9.162;2023-07-20T02:07:41;7.90;;;3.00;;
25199;SDS011;33094;48.782;9.162;2023-07-20T02:10:07;7.07;;;3.08;;
25199;SDS011;33094;48.782;9.162;2023-07-20T02:12:33;5.07;;;2.70;;
25199;SDS011;33094;48.782;9.162;2023-07-20T02:14:59;7.53;;;3.33;;
25199;SDS011;33094;48.782;9.162;2023-07-20T02:17:25;5.70;;;2.60;;
25199;SDS011;33094;48.782;9.162;2023-07-20T02:19:52;5.20;;;3.07;;
25199;SDS011;33094;48.782;9.162;2023-07-20T02:22:18;7.15;;;2.55;;
25199;SDS011;33094;48.782;9.162;2023-07-20T02:24:44;3.08;;;2.40;;
25199;SDS011;33094;48.782;9.162;2023-07-20T02:27:09;8.83;;;2.80;;
25199;SDS011;33094;48.782;9.162;2023-07-20T02:29:35;6.25;;;2.42;;
25199;SDS011;33094;48.782;9.162;2023-07-20T02:32:01;5.90;;;2.57;;
25199;SDS011;33094;48.782;9.162;2023-07-20T02:34:27;5.93;;;2.45;;
25199;SDS011;33094;48.782;9.162;2023-07-20T02:36:52;6.45;;;2.95;;
25199;SDS011;33094;48.782;9.162;2023-07-20T02:39:21;4.63;;;2.67;;
25199;SDS011;33094;48.782;9.162;2023-07-20T02:41:46;4.30;;;2.38;;
25199;SDS011;33094;48.782;9.162;2023-07-20T02:44:13;7.63;;;3.20;;
25199;SDS011;33094;48.782;9.162;2023-07-20T02:49:04;6.07;;;2.70;;
25199;SDS011;33094;48.782;9.162;2023-07-20T02:51:30;7.38;;;2.92;;
25199;SDS011;33094;48.782;9.162;2023-07-20T02:53:56;7.68;;;3.20;;
25199;SDS011;33094;48.782;9.162;2023-07-20T02:56:21;6.15;;;3.20;;
25199;SDS011;33094;48.782;9.162;2023-07-20T02:58:47;3.45;;;2.50;;
25199;SDS011;33094;48.782;9.162;2023-07-20T03:01:13;10.57;;;3.38;;
25199;SDS011;33094;48.782;9.162;2023-07-20T03:03:40;5.57;;;2.80;;
25199;SDS011;33094;48.782;9.162;2023-07-20T03:06:11;9.15;;;2.70;;
25199;SDS011;33094;48.782;9.162;2023-07-20T03:08:41;6.10;;;2.97;;
25199;SDS011;33094;48.782;9.162;2023-07-20T03:11:07;6.28;;;2.72;;
25199;SDS011;33094;48.782;9.162;2023-07-20T03:13:32;4.28;;;2.40;;
25199;SDS011;33094;48.782;9.162;2023-07-20T03:15:58;4.63;;;2.77;;
25199;SDS011;33094;48.782;9.162;2023-07-20T03:18:24;4.47;;;2.40;;
25199;SDS011;33094;48.782;9.162;2023-07-20T03:20:49;6.10;;;2.83;;
25199;SDS011;33094;48.782;9.162;2023-07-20T03:23:15;5.33;;;2.20;;
25199;SDS011;33094;48.782;9.162;2023-07-20T03:25:41;2.67;;;2.45;;
25199;SDS011;33094;48.782;9.162;2023-07-20T03:28:07;6.95;;;2.55;;
25199;SDS011;33094;48.782;9.162;2023-07-20T03:30:33;11.53;;;3.57;;
25199;SDS011;33094;48.782;9.162;2023-07-20T03:32:59;2.70;;;2.33;;
25199;SDS011;33094;48.782;9.162;2023-07-20T03:35:25;12.55;;;3.47;;
25199;SDS011;33094;48.782;9.162;2023-07-20T03:37:50;5.83;;;2.57;;
25199;SDS011;33094;48.782;9.162;2023-07-20T03:40:17;4.40;;;2.60;;
25199;SDS011;33094;48.782;9.162;2023-07-20T03:42:42;7.25;;;2.50;;
25199;SDS011;33094;48.782;9.162;2023-07-20T03:45:08;6.45;;;2.50;;
25199;SDS011;33094;48.782;9.162;2023-07-20T03:47:34;8.43;;;7.00;;
25199;SDS011;33094;48.782;9.162;2023-07-20T03:50:00;3.67;;;2.53;;
25199;SDS011;33094;48.782;9.162;2023-07-20T03:52:26;4.97;;;3.08;;
25199;SDS011;33094;48.782;9.162;2023-07-20T03:54:51;5.63;;;2.65;;
25199;SDS011;33094;48.782;9.162;2023-07-20T03:57:17;5.78;;;2.60;;
25199;SDS011;33094;48.782;9.162;2023-07-20T03:59:45;5.40;;;2.80;;
25199;SDS011;33094;48.782;9.162;2023-07-20T04:02:11;9.32;;;4.03;;
25199;SDS011;33094;48.782;9.162;2023-07-20T04:04:37;3.70;;;3.08;;
25199;SDS011;33094;48.782;9.162;2023-07-20T04:07:03;5.20;;;3.03;;
25199;SDS011;33094;48.782;9.162;2023-07-20T04:09:28;6.78;;;2.83;;
25199;SDS011;33094;48.782;9.162;2023-07-20T04:11:56;6.88;;;2.78;;
25199;SDS011;33094;48.782;9.162;2023-07-20T04:14:22;7.15;;;2.95;;
25199;SDS011;33094;48.782;9.162;2023-07-20T04:16:47;5.28;;;3.38;;
25199;SDS011;33094;48.782;9.162;2023-07-20T04:19:13;6.20;;;2.95;;
25199;SDS011;33094;48.782;9.162;2023-07-20T04:21:39;5.78;;;2.95;;
25199;SDS011;33094;48.782;9.162;2023-07-20T04:24:06;5.05;;;2.78;;
25199;SDS011;33094;48.782;9.162;2023-07-20T04:26:32;4.25;;;2.55;;
25199;SDS011;33094;48.782;9.162;2023-07-20T04:28:57;7.00;;;2.80;;
25199;SDS011;33094;48.782;9.162;2023-07-20T04:31:24;8.40;;;2.80;;
25199;SDS011;33094;48.782;9.162;2023-07-20T04:33:50;5.30;;;2.58;;
25199;SDS011;33094;48.782;9.162;2023-07-20T04:36:16;3.75;;;2.50;;
25199;SDS011;33094;48.782;9.162;2023-07-20T04:38:47;5.38;;;2.80;;
25199;SDS011;33094;48.782;9.162;2023-07-20T04:41:13;6.53;;;2.90;;
25199;SDS011;33094;48.782;9.162;2023-07-20T04:43:43;5.00;;;2.97;;
25199;SDS011;33094;48.782;9.162;2023-07-20T04:46:09;5.50;;;4.35;;
25199;SDS011;33094;48.782;9.162;2023-07-20T04:48:35;5.90;;;2.90;;
25199;SDS011;33094;48.782;9.162;2023-07-20T04:51:01;3.20;;;2.90;;
25199;SDS011;33094;48.782;9.162;2023-07-20T04:53:27;6.38;;;2.90;;
25199;SDS011;33094;48.782;9.162;2023-07-20T04:55:53;6.03;;;2.75;;
25199;SDS011;33094;48.782;9.162;2023-07-20T04:58:19;6.43;;;2.70;;
25199;SDS011;33094;48.782;9.162;2023-07-20T05:00:48;7.00;;;3.00;;
25199;SDS011;33094;48.782;9.162;2023-07-20T05:03:14;6.30;;;2.90;;
25199;SDS011;33094;48.782;9.162;2023-07-20T05:05:39;7.15;;;2.92;;
25199;SDS011;33094;48.782;9.162;2023-07-20T05:08:05;3.33;;;2.95;;
25199;SDS011;33094;48.782;9.162;2023-07-20T05:10:31;5.70;;;3.03;;
25199;SDS011;33094;48.782;9.162;2023-07-20T05:12:57;5.53;;;2.65;;
25199;SDS011;33094;48.782;9.162;2023-07-20T05:15:23;4.87;;;3.30;;
25199;SDS011;33094;48.782;9.162;2023-07-20T05:17:49;8.57;;;3.33;;
25199;SDS011;33094;48.782;9.162;2023-07-20T05:20:14;6.43;;;3.03;;
25199;SDS011;33094;48.782;9.162;2023-07-20T05:22:40;7.30;;;2.73;;
25199;SDS011;33094;48.782;9.162;2023-07-20T05:25:07;8.48;;;3.97;;
25199;SDS011;33094;48.782;9.162;2023-07-20T05:27:33;3.47;;;2.38;;
25199;SDS011;33094;48.782;9.162;2023-07-20T05:30:01;7.07;;;2.80;;
25199;SDS011;33094;48.782;9.162;2023-07-20T05:32:27;8.68;;;3.30;;
25199;SDS011;33094;48.782;9.162;2023-07-20T05:34:53;8.43;;;3.00;;
25199;SDS011;33094;48.782;9.162;2023-07-20T05:37:19;7.10;;;3.00;;
25199;SDS011;33094;48.782;9.162;2023-07-20T05:39:45;7.05;;;3.30;;
25199;SDS011;33094;48.782;9.162;2023-07-20T05:42:11;9.67;;;3.93;;
25199;SDS011;33094;48.782;9.162;2023-07-20T05:44:37;16.10;;;3.30;;
25199;SDS011;33094;48.782;9.162;2023-07-20T05:47:03;10.10;;;2.90;;
25199;SDS011;33094;48.782;9.162;2023-07-20T05:49:29;4.80;;;2.75;;
25199;SDS011;33094;48.782;9.162;2023-07-20T05:51:55;5.27;;;2.93;;
25199;SDS011;33094;48.782;9.162;2023-07-20T05:54:21;2.65;;;2.22;;
25199;SDS011;33094;48.782;9.162;2023-07-20T05:56:48;5.43;;;2.58;;
25199;SDS011;33094;48.782;9.162;2023-07-20T05:59:14;7.57;;;3.03;;
25199;SDS011;33094;48.782;9.162;2023-07-20T06:04:06;4.97;;;2.50;;
25199;SDS011;33094;48.782;9.162;2023-07-20T06:06:32;3.37;;;2.43;;
25199;SDS011;33094;48.782;9.162;2023-07-20T06:08:58;7.87;;;2.70;;
25199;SDS011;33094;48.782;9.162;2023-07-20T06:11:28;7.07;;;2.70;;
25199;SDS011;33094;48.782;9.162;2023-07-20T06:13:57;4.90;;;2.67;;
25199;SDS011;33094;48.782;9.162;2023-07-20T06:16:22;5.75;;;2.58;;
25199;SDS011;33094;48.782;9.162;2023-07-20T06:18:48;8.23;;;3.30;;
25199;SDS011;33094;48.782;9.162;2023-07-20T06:21:14;13.17;;;3.17;;
25199;SDS011;33094;48.782;9.162;2023-07-20T06:23:40;13.07;;;3.40;;
25199;SDS011;33094;48.782;9.162;2023-07-20T06:26:06;8.35;;;3.25;;
25199;SDS011;33094;48.782;9.162;2023-07-20T06:28:32;8.90;;;3.03;;
25199;SDS011;33094;48.782;9.162;2023-07-20T06:30:59;7.53;;;2.92;;
25199;SDS011;33094;48.782;9.162;2023-07-20T06:33:29;6.72;;;2.95;;
25199;SDS011;33094;48.782;9.162;2023-07-20T06:35:54;5.17;;;2.70;;
25199;SDS011;33094;48.782;9.162;2023-07-20T06:38:21;5.38;;;2.35;;
25199;SDS011;33094;48.782;9.162;2023-07-20T06:40:48;5.22;;;3.05;;
25199;SDS011;33094;48.782;9.162;2023-07-20T06:43:17;8.80;;;3.70;;
25199;SDS011;33094;48.782;9.162;2023-07-20T06:45:43;11.10;;;3.70;;
25199;SDS011;33094;48.782;9.162;2023-07-20T06:48:09;15.90;;;4.47;;
25199;SDS011;33094;48.782;9.162;2023-07-20T06:50:35;13.40;;;4.00;;
25199;SDS011;33094;48.782;9.162;2023-07-20T06:53:01;4.97;;;2.80;;
25199;SDS011;33094;48.782;9.162;2023-07-20T06:55:29;6.15;;;2.95;;
25199;SDS011;33094;48.782;9.162;2023-07-20T06:57:54;14.10;;;3.37;;
25199;SDS011;33094;48.782;9.162;2023-07-20T07:00:20;5.00;;;2.70;;
25199;SDS011;33094;48.782;9.162;2023-07-20T07:02:46;7.73;;;2.93;;
25199;SDS011;33094;48.782;9.162;2023-07-20T07:05:12;3.63;;;2.47;;
25199;SDS011;33094;48.782;9.162;2023-07-20T07:07:39;10.82;;;2.90;;
25199;SDS011;33094;48.782;9.162;2023-07-20T07:10:05;7.33;;;2.30;;
25199;SDS011;33094;48.782;9.162;2023-07-20T07:12:32;7.25;;;2.72;;
25199;SDS011;33094;48.782;9.162;2023-07-20T07:14:57;5.53;;;2.80;;
25199;SDS011;33094;48.782;9.162;2023-07-20T07:17:23;7.00;;;2.90;;
25199;SDS011;33094;48.782;9.162;2023-07-20T07:19:49;12.43;;;2.63;;
25199;SDS011;33094;48.782;9.162;2023-07-20T07:22:19;7.72;;;2.65;;
25199;SDS011;33094;48.782;9.162;2023-07-20T07:27:12;6.22;;;2.95;;
25199;SDS011;33094;48.782;9.162;2023-07-20T07:29:37;7.97;;;3.00;;
25199;SDS011;33094;48.782;9.162;2023-07-20T07:32:03;5.65;;;3.13;;
25199;SDS011;33094;48.782;9.162;2023-07-20T07:34:29;13.95;;;3.70;;
25199;SDS011;33094;48.782;9.162;2023-07-20T07:36:55;4.37;;;2.67;;
25199;SDS011;33094;48.782;9.162;2023-07-20T07:39:21;8.03;;;2.67;;
25199;SDS011;33094;48.782;9.162;2023-07-20T07:41:46;5.43;;;2.80;;
25199;SDS011;33094;48.782;9.162;2023-07-20T07:44:12;2.60;;;2.40;;
25199;SDS011;33094;48.782;9.162;2023-07-20T07:46:38;6.67;;;2.40;;
25199;SDS011;33094;48.782;9.162;2023-07-20T07:49:06;3.10;;;2.65;;
25199;SDS011;33094;48.782;9.162;2023-07-20T07:51:32;6.07;;;2.60;;
25199;SDS011;33094;48.782;9.162;2023-07-20T07:54:01;4.93;;;2.28;;
25199;SDS011;33094;48.782;9.162;2023-07-20T07:56:34;5.93;;;3.40;;
25199;SDS011;33094;48.782;9.162;2023-07-20T07:58:59;4.97;;;3.33;;
25199;SDS011;33094;48.782;9.162;2023-07-20T08:01:25;7.60;;;2.73;;
25199;SDS011;33094;48.782;9.162;2023-07-20T08:03:51;5.00;;;2.23;;
25199;SDS011;33094;48.782;9.162;2023-07-20T08:06:16;6.80;;;3.23;;
25199;SDS011;33094;48.782;9.162;2023-07-20T08:08:42;3.83;;;2.33;;
25199;SDS011;33094;48.782;9.162;2023-07-20T08:11:08;5.27;;;2.63;;
25199;SDS011;33094;48.782;9.162;2023-07-20T08:13:34;4.30;;;2.70;;
25199;SDS011;33094;48.782;9.162;2023-07-20T08:16:01;4.68;;;2.60;;
25199;SDS011;33094;48.782;9.162;2023-07-20T08:18:29;6.55;;;2.92;;
25199;SDS011;33094;48.782;9.162;2023-07-20T08:20:56;8.82;;;4.35;;
25199;SDS011;33094;48.782;9.162;2023-07-20T08:23:22;8.60;;;2.87;;
25199;SDS011;33094;48.782;9.162;2023-07-20T08:25:48;5.20;;;2.73;;
25199;SDS011;33094;48.782;9.162;2023-07-20T08:28:13;10.83;;;2.53;;
25199;SDS011;33094;48.782;9.162;2023-07-20T08:30:41;4.45;;;2.83;;
25199;SDS011;33094;48.782;9.162;2023-07-20T08:33:07;7.65;;;2.88;;
25199;SDS011;33094;48.782;9.162;2023-07-20T08:35:34;9.32;;;3.10;;
25199;SDS011;33094;48.782;9.162;2023-07-20T08:37:59;16.07;;;3.10;;
25199;SDS011;33094;48.782;9.162;2023-07-20T08:40:25;8.63;;;2.60;;
25199;SDS011;33094;48.782;9.162;2023-07-20T08:42:51;10.67;;;2.80;;
25199;SDS011;33094;48.782;9.162;2023-07-20T08:45:19;3.78;;;2.75;;
25199;SDS011;33094;48.782;9.162;2023-07-20T08:47:47;6.65;;;2.47;;
25199;SDS011;33094;48.782;9.162;2023-07-20T08:50:14;6.47;;;2.50;;
25199;SDS011;33094;48.782;9.162;2023-07-20T08:52:41;3.25;;;2.38;;
25199;SDS011;33094;48.782;9.162;2023-07-20T08:55:07;9.37;;;2.23;;
25199;SDS011;33094;48.782;9.162;2023-07-20T08:57:33;4.50;;;2.25;;
25199;SDS011;33094;48.782;9.162;2023-07-20T09:00:01;11.18;;;2.30;;
25199;SDS011;33094;48.782;9.162;2023-07-20T09:02:30;5.38;;;2.45;;
25199;SDS011;33094;48.782;9.162;2023-07-20T09:05:00;5.38;;;2.55;;
25199;SDS011;33094;48.782;9.162;2023-07-20T09:07:26;7.10;;;2.30;;
25199;SDS011;33094;48.782;9.162;2023-07-20T09:09:52;13.88;;;2.40;;
25199;SDS011;33094;48.782;9.162;2023-07-20T09:12:17;9.43;;;2.50;;
25199;SDS011;33094;48.782;9.162;2023-07-20T09:14:44;4.35;;;2.05;;
25199;SDS011;33094;48.782;9.162;2023-07-20T09:17:13;5.28;;;2.17;;
25199;SDS011;33094;48.782;9.162;2023-07-20T09:19:47;3.40;;;2.45;;
25199;SDS011;33094;48.782;9.162;2023-07-20T09:22:13;7.97;;;3.30;;
25199;SDS011;33094;48.782;9.162;2023-07-20T09:24:38;3.37;;;2.07;;
25199;SDS011;33094;48.782;9.162;2023-07-20T09:27:06;4.82;;;2.60;;
25199;SDS011;33094;48.782;9.162;2023-07-20T09:29:32;4.50;;;2.30;;
25199;SDS011;33094;48.782;9.162;2023-07-20T09:31:58;4.30;;;1.97;;
25199;SDS011;33094;48.782;9.162;2023-07-20T09:34:26;7.10;;;2.13;;
25199;SDS011;33094;48.782;9.162;2023-07-20T09:36:53;5.50;;;2.90;;
25199;SDS011;33094;48.782;9.162;2023-07-20T09:39:18;3.20;;;2.60;;
25199;SDS011;33094;48.782;9.162;2023-07-20T09:41:45;5.82;;;2.50;;
25199;SDS011;33094;48.782;9.162;2023-07-20T09:44:11;3.47;;;2.10;;
25199;SDS011;33094;48.782;9.162;2023-07-20T09:46:44;3.72;;;2.10;;
25199;SDS011;33094;48.782;9.162;2023-07-20T09:49:14;5.53;;;2.20;;
25199;SDS011;33094;48.782;9.162;2023-07-20T09:51:40;6.90;;;2.40;;
25199;SDS011;33094;48.782;9.162;2023-07-20T09:54:07;3.65;;;2.05;;
25199;SDS011;33094;48.782;9.162;2023-07-20T10:01:25;8.68;;;3.00;;
25199;SDS011;33094;48.782;9.162;2023-07-20T10:03:54;4.70;;;1.90;;
25199;SDS011;33094;48.782;9.162;2023-07-20T10:06:23;8.07;;;2.20;;
25199;SDS011;33094;48.782;9.162;2023-07-20T10:08:53;7.40;;;2.20;;
25199;SDS011;33094;48.782;9.162;2023-07-20T10:11:21;2.85;;;1.95;;
25199;SDS011;33094;48.782;9.162;2023-07-20T10:13:51;4.78;;;2.10;;
25199;SDS011;33094;48.782;9.162;2023-07-20T10:16:24;2.75;;;1.88;;
25199;SDS011;33094;48.782;9.162;2023-07-20T10:18:59;4.97;;;2.30;;
25199;SDS011;33094;48.782;9.162;2023-07-20T10:21:37;3.58;;;1.50;;
25199;SDS011;33094;48.782;9.162;2023-07-20T10:24:07;3.45;;;1.85;;
25199;SDS011;33094;48.782;9.162;2023-07-20T10:26:34;2.53;;;1.85;;
25199;SDS011;33094;48.782;9.162;2023-07-20T10:29:00;10.40;;;2.10;;
25199;SDS011;33094;48.782;9.162;2023-07-20T10:31:26;11.75;;;3.13;;
25199;SDS011;33094;48.782;9.162;2023-07-20T10:33:53;9.13;;;2.42;;
25199;SDS011;33094;48.782;9.162;2023-07-20T10:36:25;7.63;;;1.90;;
25199;SDS011;33094;48.782;9.162;2023-07-20T10:38:54;3.65;;;2.13;;
25199;SDS011;33094;48.782;9.162;2023-07-20T10:41:28;3.60;;;2.08;;
25199;SDS011;33094;48.782;9.162;2023-07-20T10:49:12;3.33;;;1.80;;
25199;SDS011;33094;48.782;9.162;2023-07-20T10:51:40;3.08;;;1.90;;
25199;SDS011;33094;48.782;9.162;2023-07-20T10:56:47;3.38;;;1.67;;
25199;SDS011;33094;48.782;9.162;2023-07-20T11:01:48;5.88;;;1.80;;
25199;SDS011;33094;48.782;9.162;2023-07-20T11:04:16;6.30;;;2.10;;
25199;SDS011;33094;48.782;9.162;2023-07-20T11:06:46;4.18;;;1.58;;
25199;SDS011;33094;48.782;9.162;2023-07-20T11:09:22;5.90;;;2.38;;
25199;SDS011;33094;48.782;9.162;2023-07-20T11:11:50;6.93;;;2.20;;
25199;SDS011;33094;48.782;9.162;2023-07-20T11:14:44;2.90;;;1.20;;
25199;SDS011;33094;48.782;9.162;2023-07-20T11:17:28;3.83;;;1.90;;
25199;SDS011;33094;48.782;9.162;2023-07-20T11:19:55;9.95;;;2.10;;
25199;SDS011;33094;48.782;9.162;2023-07-20T11:22:22;4.60;;;1.70;;
25199;SDS011;33094;48.782;9.162;2023-07-20T11:24:47;2.03;;;1.52;;
25199;SDS011;33094;48.782;9.162;2023-07-20T11:27:14;2.92;;;1.70;;
25199;SDS011;33094;48.782;9.162;2023-07-20T11:34:32;4.97;;;1.55;;
25199;SDS011;33094;48.782;9.162;2023-07-20T11:36:58;4.45;;;1.63;;
25199;SDS011;33094;48.782;9.162;2023-07-20T11:39:24;2.10;;;1.58;;
25199;SDS011;33094;48.782;9.162;2023-07-20T11:41:51;1.90;;;1.35;;
25199;SDS011;33094;48.782;9.162;2023-07-20T11:44:18;3.50;;;1.50;;
25199;SDS011;33094;48.782;9.162;2023-07-20T11:46:45;1.90;;;1.33;;
25199;SDS011;33094;48.782;9.162;2023-07-20T11:49:12;1.98;;;1.60;;
25199;SDS011;33094;48.782;9.162;2023-07-20T11:54:05;4.13;;;1.70;;
25199;SDS011;33094;48.782;9.162;2023-07-20T11:56:33;3.13;;;1.42;;
25199;SDS011;33094;48.782;9.162;2023-07-20T11:58:58;5.55;;;1.77;;
25199;SDS011;33094;48.782;9.162;2023-07-20T12:01:27;3.30;;;1.73;;
25199;SDS011;33094;48.782;9.162;2023-07-20T12:04:00;2.45;;;1.48;;
25199;SDS011;33094;48.782;9.162;2023-07-20T12:06:28;3.80;;;1.58;;
25199;SDS011;33094;48.782;9.162;2023-07-20T12:08:55;3.45;;;1.80;;
25199;SDS011;33094;48.782;9.162;2023-07-20T12:14:04;4.63;;;1.50;;
25199;SDS011;33094;48.782;9.162;2023-07-20T12:16:33;3.20;;;1.60;;
25199;SDS011;33094;48.782;9.162;2023-07-20T12:19:03;7.63;;;1.50;;
25199;SDS011;33094;48.782;9.162;2023-07-20T12:21:30;2.70;;;1.40;;
25199;SDS011;33094;48.782;9.162;2023-07-20T12:23:57;2.50;;;1.60;;
25199;SDS011;33094;48.782;9.162;2023-07-20T12:26:23;2.42;;;1.70;;
25199;SDS011;33094;48.782;9.162;2023-07-20T12:28:50;2.65;;;1.55;;
25199;SDS011;33094;48.782;9.162;2023-07-20T12:31:16;3.08;;;1.90;;
25199;SDS011;33094;48.782;9.162;2023-07-20T12:33:42;3.67;;;1.85;;
25199;SDS011;33094;48.782;9.162;2023-07-20T12:36:08;5.70;;;1.65;;
25199;SDS011;33094;48.782;9.162;2023-07-20T12:38:34;1.88;;;1.60;;
25199;SDS011;33094;48.782;9.162;2023-07-20T12:41:03;5.88;;;1.30;;
25199;SDS011;33094;48.782;9.162;2023-07-20T12:43:29;2.75;;;1.88;;
25199;SDS011;33094;48.782;9.162;2023-07-20T12:45:57;2.10;;;1.50;;
25199;SDS011;33094;48.782;9.162;2023-07-20T12:48:23;3.72;;;1.58;;
25199;SDS011;33094;48.782;9.162;2023-07-20T12:50:49;2.17;;;1.67;;
25199;SDS011;33094;48.782;9.162;2023-07-20T12:53:14;3.95;;;1.40;;
25199;SDS011;33094;48.782;9.162;2023-07-20T12:55:40;3.58;;;1.55;;
25199;SDS011;33094;48.782;9.162;2023-07-20T12:58:06;3.60;;;1.75;;
25199;SDS011;33094;48.782;9.162;2023-07-20T13:00:33;2.83;;;1.20;;
25199;SDS011;33094;48.782;9.162;2023-07-20T13:02:58;5.82;;;2.33;;
25199;SDS011;33094;48.782;9.162;2023-07-20T13:05:24;1.50;;;1.30;;
25199;SDS011;33094;48.782;9.162;2023-07-20T13:07:50;3.13;;;1.77;;
25199;SDS011;33094;48.782;9.162;2023-07-20T13:10:16;6.32;;;1.63;;
25199;SDS011;33094;48.782;9.162;2023-07-20T13:12:42;3.47;;;1.83;;
25199;SDS011;33094;48.782;9.162;2023-07-20T13:15:08;2.95;;;1.35;;
25199;SDS011;33094;48.782;9.162;2023-07-20T13:17:36;1.90;;;1.60;;
25199;SDS011;33094;48.782;9.162;2023-07-20T13:20:03;5.75;;;1.58;;
25199;SDS011;33094;48.782;9.162;2023-07-20T13:22:31;2.38;;;1.77;;
25199;SDS011;33094;48.782;9.162;2023-07-20T13:24:56;9.23;;;1.80;;
25199;SDS011;33094;48.782;9.162;2023-07-20T13:27:22;3.40;;;1.40;;
25199;SDS011;33094;48.782;9.162;2023-07-20T13:29:50;2.38;;;1.60;;
25199;SDS011;33094;48.782;9.162;2023-07-20T13:32:15;6.40;;;1.83;;
25199;SDS011;33094;48.782;9.162;2023-07-20T13:34:43;2.05;;;1.60;;
25199;SDS011;33094;48.782;9.162;2023-07-20T13:37:09;5.55;;;1.70;;
25199;SDS011;33094;48.782;9.162;2023-07-20T13:39:36;1.30;;;1.20;;
25199;SDS011;33094;48.782;9.162;2023-07-20T13:42:02;3.65;;;1.50;;
25199;SDS011;33094;48.782;9.162;2023-07-20T13:44:30;2.83;;;1.27;;
25199;SDS011;33094;48.782;9.162;2023-07-20T13:46:59;5.22;;;1.67;;
25199;SDS011;33094;48.782;9.162;2023-07-20T13:49:26;1.63;;;1.52;;
25199;SDS011;33094;48.782;9.162;2023-07-20T13:51:52;5.95;;;1.52;;
25199;SDS011;33094;48.782;9.162;2023-07-20T13:54:17;4.23;;;1.83;;
25199;SDS011;33094;48.782;9.162;2023-07-20T13:56:43;2.30;;;1.53;;
25199;SDS011;33094;48.782;9.162;2023-07-20T13:59:09;2.70;;;1.70;;
25199;SDS011;33094;48.782;9.162;2023-07-20T14:01:34;6.47;;;1.63;;
25199;SDS011;33094;48.782;9.162;2023-07-20T14:04:00;4.37;;;1.90;;
25199;SDS011;33094;48.782;9.162;2023-07-20T14:08:56;3.10;;;1.38;;
25199;SDS011;33094;48.782;9.162;2023-07-20T14:11:22;7.63;;;2.22;;
25199;SDS011;33094;48.782;9.162;2023-07-20T14:13:49;3.10;;;1.77;;
25199;SDS011;33094;48.782;9.162;2023-07-20T14:16:15;5.75;;;1.95;;
25199;SDS011;33094;48.782;9.162;2023-07-20T14:18:41;1.67;;;1.40;;
25199;SDS011;33094;48.782;9.162;2023-07-20T14:21:07;3.35;;;1.60;;
25199;SDS011;33094;48.782;9.162;2023-07-20T14:23:33;4.73;;;1.90;;
25199;SDS011;33094;48.782;9.162;2023-07-20T14:25:59;5.90;;;1.60;;
25199;SDS011;33094;48.782;9.162;2023-07-20T14:28:25;1.53;;;1.43;;
25199;SDS011;33094;48.782;9.162;2023-07-20T14:30:50;2.00;;;1.80;;
25199;SDS011;33094;48.782;9.162;2023-07-20T14:33:16;7.07;;;1.77;;
25199;SDS011;33094;48.782;9.162;2023-07-20T14:35:42;3.80;;;1.77;;
25199;SDS011;33094;48.782;9.162;2023-07-20T14:38:07;3.50;;;1.80;;
25199;SDS011;33094;48.782;9.162;2023-07-20T14:40:33;2.23;;;1.40;;
25199;SDS011;33094;48.782;9.162;2023-07-20T14:42:59;4.20;;;1.27;;
25199;SDS011;33094;48.782;9.162;2023-07-20T14:45:26;3.03;;;1.77;;
25199;SDS011;33094;48.782;9.162;2023-07-20T14:47:52;2.67;;;1.45;;
25199;SDS011;33094;48.782;9.162;2023-07-20T14:50:21;2.17;;;1.40;;
25199;SDS011;33094;48.782;9.162;2023-07-20T14:52:46;2.13;;;1.50;;
25199;SDS011;33094;48.782;9.162;2023-07-20T14:55:12;5.15;;;1.55;;
25199;SDS011;33094;48.782;9.162;2023-07-20T14:57:38;5.15;;;1.88;;
25199;SDS011;33094;48.782;9.162;2023-07-20T15:00:04;2.37;;;2.13;;
25199;SDS011;33094;48.782;9.162;2023-07-20T15:02:35;4.45;;;1.30;;
25199;SDS011;33094;48.782;9.162;2023-07-20T15:05:02;2.72;;;1.40;;
25199;SDS011;33094;48.782;9.162;2023-07-20T15:07:31;2.00;;;1.58;;
25199;SDS011;33094;48.782;9.162;2023-07-20T15:09:57;2.90;;;1.77;;
25199;SDS011;33094;48.782;9.162;2023-07-20T15:12:23;2.87;;;1.20;;
25199;SDS011;33094;48.782;9.162;2023-07-20T15:15:04;2.73;;;1.13;;
25199;SDS011;33094;48.782;9.162;2023-07-20T15:17:32;5.70;;;1.35;;
25199;SDS011;33094;48.782;9.162;2023-07-20T15:22:24;1.65;;;1.50;;
25199;SDS011;33094;48.782;9.162;2023-07-20T15:24:50;2.75;;;1.50;;
25199;SDS011;33094;48.782;9.162;2023-07-20T15:27:16;1.40;;;1.30;;
25199;SDS011;33094;48.782;9.162;2023-07-20T15:29:42;2.47;;;1.98;;
25199;SDS011;33094;48.782;9.162;2023-07-20T15:32:09;4.25;;;1.40;;
25199;SDS011;33094;48.782;9.162;2023-07-20T15:34:35;2.15;;;1.33;;
25199;SDS011;33094;48.782;9.162;2023-07-20T15:37:00;2.00;;;1.70;;
25199;SDS011;33094;48.782;9.162;2023-07-20T15:39:26;4.33;;;1.93;;
25199;SDS011;33094;48.782;9.162;2023-07-20T15:41:52;4.00;;;1.90;;
25199;SDS011;33094;48.782;9.162;2023-07-20T15:44:18;3.70;;;1.48;;
25199;SDS011;33094;48.782;9.162;2023-07-20T15:46:46;2.20;;;1.53;;
25199;SDS011;33094;48.782;9.162;2023-07-20T15:49:13;1.98;;;1.55;;
25199;SDS011;33094;48.782;9.162;2023-07-20T15:51:41;1.60;;;1.50;;
25199;SDS011;33094;48.782;9.162;2023-07-20T15:54:10;2.35;;;1.67;;
25199;SDS011;33094;48.782;9.162;2023-07-20T15:56:36;4.80;;;1.50;;
25199;SDS011;33094;48.782;9.162;2023-07-20T15:59:03;1.92;;;1.40;;
25199;SDS011;33094;48.782;9.162;2023-07-20T16:01:29;3.90;;;1.88;;
25199;SDS011;33094;48.782;9.162;2023-07-20T16:03:56;3.90;;;1.52;;
25199;SDS011;33094;48.782;9.162;2023-07-20T16:06:22;1.75;;;1.45;;
25199;SDS011;33094;48.782;9.162;2023-07-20T16:08:49;2.97;;;1.63;;